Terminal Aerodrome Forecast
Issued by NWS St Louis, MO

Home | Current Version | Previous Version | Text Only | Print | Product List | Glossary On
Versions: 1 2 3 4 5 6 7 8 9 10 11 12 13 14 15 16 17 18 19 20 21
841
FTUS43 KLSX 251135
TAFCOU
TAF
KCOU 251135Z 2512/2612 15005KT P6SM SCT150
     FM251600 VRB04KT P6SM BKN100
     FM252100 27004KT P6SM VCTS BKN050CB
     FM260200 03004KT P6SM BKN120=

USA.gov is the U.S. government's official web portal to all federal, state and local government web resources and services.